sensor_id;sensor_type;location;lat;lon;timestamp;pressure;altitude;pressure_sealevel;temperature;humidity
7532;BME280;3807;49.030;8.714;2023-05-03T00:00:48;100207.56;;;16.64;52.79
7532;BME280;3807;49.030;8.714;2023-05-03T00:03:13;100206.09;;;16.59;53.00
7532;BME280;3807;49.030;8.714;2023-05-03T00:05:38;100204.34;;;16.59;52.73
7532;BME280;3807;49.030;8.714;2023-05-03T00:08:04;100198.59;;;16.54;52.93
7532;BME280;3807;49.030;8.714;2023-05-03T00:10:30;100199.69;;;16.49;53.18
7532;BME280;3807;49.030;8.714;2023-05-03T00:12:55;100210.88;;;16.48;53.00
7532;BME280;3807;49.030;8.714;2023-05-03T00:15:20;100203.25;;;16.46;52.84
7532;BME280;3807;49.030;8.714;2023-05-03T00:17:46;100208.56;;;16.41;52.89
7532;BME280;3807;49.030;8.714;2023-05-03T00:20:11;100207.69;;;16.42;52.88
7532;BME280;3807;49.030;8.714;2023-05-03T00:22:37;100208.84;;;16.35;53.03
7532;BME280;3807;49.030;8.714;2023-05-03T00:25:02;100201.19;;;16.34;53.01
7532;BME280;3807;49.030;8.714;2023-05-03T00:27:28;100210.72;;;16.32;53.05
7532;BME280;3807;49.030;8.714;2023-05-03T00:29:54;100202.34;;;16.27;53.11
7532;BME280;3807;49.030;8.714;2023-05-03T00:32:20;100199.16;;;16.22;53.38
7532;BME280;3807;49.030;8.714;2023-05-03T00:34:52;100202.44;;;16.25;52.89
7532;BME280;3807;49.030;8.714;2023-05-03T00:37:17;100203.31;;;16.24;53.14
7532;BME280;3807;49.030;8.714;2023-05-03T00:39:43;100198.38;;;16.19;52.92
7532;BME280;3807;49.030;8.714;2023-05-03T00:42:08;100196.06;;;16.13;52.98
7532;BME280;3807;49.030;8.714;2023-05-03T00:44:33;100196.25;;;16.09;52.96
7532;BME280;3807;49.030;8.714;2023-05-03T00:46:59;100198.12;;;16.05;53.02
7532;BME280;3807;49.030;8.714;2023-05-03T00:49:25;100203.37;;;16.02;53.03
7532;BME280;3807;49.030;8.714;2023-05-03T00:51:52;100200.03;;;16.00;52.92
7532;BME280;3807;49.030;8.714;2023-05-03T00:54:17;100194.47;;;15.90;53.15
7532;BME280;3807;49.030;8.714;2023-05-03T00:56:43;100193.66;;;15.90;53.08
7532;BME280;3807;49.030;8.714;2023-05-03T00:59:09;100197.09;;;15.89;52.96
7532;BME280;3807;49.030;8.714;2023-05-03T01:01:35;100190.41;;;15.85;53.07
7532;BME280;3807;49.030;8.714;2023-05-03T01:04:02;100188.91;;;15.79;53.48
7532;BME280;3807;49.030;8.714;2023-05-03T01:11:43;100183.34;;;15.69;53.15
7532;BME280;3807;49.030;8.714;2023-05-03T01:17:05;100186.94;;;15.64;53.31
7532;BME280;3807;49.030;8.714;2023-05-03T01:19:35;100178.72;;;15.56;53.52
7532;BME280;3807;49.030;8.714;2023-05-03T01:22:09;100180.50;;;15.54;53.50
7532;BME280;3807;49.030;8.714;2023-05-03T01:24:37;100180.63;;;15.51;53.36
7532;BME280;3807;49.030;8.714;2023-05-03T01:27:05;100175.50;;;15.51;53.71
7532;BME280;3807;49.030;8.714;2023-05-03T01:29:31;100173.00;;;15.49;53.52
7532;BME280;3807;49.030;8.714;2023-05-03T01:31:59;100165.53;;;15.43;53.57
7532;BME280;3807;49.030;8.714;2023-05-03T01:34:35;100165.63;;;15.41;53.47
7532;BME280;3807;49.030;8.714;2023-05-03T01:37:03;100163.09;;;15.40;53.55
7532;BME280;3807;49.030;8.714;2023-05-03T01:39:37;100164.00;;;15.39;53.56
7532;BME280;3807;49.030;8.714;2023-05-03T01:42:03;100170.91;;;15.37;53.64
7532;BME280;3807;49.030;8.714;2023-05-03T01:44:30;100162.63;;;15.30;53.42
7532;BME280;3807;49.030;8.714;2023-05-03T01:46:56;100163.59;;;15.28;53.60
7532;BME280;3807;49.030;8.714;2023-05-03T01:49:21;100160.94;;;15.29;53.44
7532;BME280;3807;49.030;8.714;2023-05-03T01:51:47;100160.34;;;15.22;53.51
7532;BME280;3807;49.030;8.714;2023-05-03T01:54:12;100161.38;;;15.18;53.53
7532;BME280;3807;49.030;8.714;2023-05-03T01:56:37;100156.38;;;15.15;53.70
7532;BME280;3807;49.030;8.714;2023-05-03T01:59:03;100162.41;;;15.14;53.81
7532;BME280;3807;49.030;8.714;2023-05-03T02:01:29;100163.41;;;15.10;53.69
7532;BME280;3807;49.030;8.714;2023-05-03T02:03:54;100157.59;;;15.05;53.70
7532;BME280;3807;49.030;8.714;2023-05-03T02:06:19;100161.91;;;15.05;53.69
7532;BME280;3807;49.030;8.714;2023-05-03T02:08:45;100157.00;;;14.98;53.86
7532;BME280;3807;49.030;8.714;2023-05-03T02:11:10;100151.03;;;14.98;53.73
7532;BME280;3807;49.030;8.714;2023-05-03T02:13:36;100155.53;;;14.93;53.74
7532;BME280;3807;49.030;8.714;2023-05-03T02:16:02;100153.22;;;14.85;54.10
7532;BME280;3807;49.030;8.714;2023-05-03T02:18:27;100156.66;;;14.86;54.03
7532;BME280;3807;49.030;8.714;2023-05-03T02:20:55;100160.19;;;14.82;53.90
7532;BME280;3807;49.030;8.714;2023-05-03T02:23:21;100156.03;;;14.79;54.00
7532;BME280;3807;49.030;8.714;2023-05-03T02:25:46;100149.50;;;14.70;54.10
7532;BME280;3807;49.030;8.714;2023-05-03T02:28:12;100160.59;;;14.71;54.01
7532;BME280;3807;49.030;8.714;2023-05-03T02:30:37;100153.91;;;14.67;54.08
7532;BME280;3807;49.030;8.714;2023-05-03T02:33:03;100157.44;;;14.64;54.25
7532;BME280;3807;49.030;8.714;2023-05-03T02:35:28;100153.91;;;14.67;53.79
7532;BME280;3807;49.030;8.714;2023-05-03T02:37:54;100155.87;;;14.60;54.06
7532;BME280;3807;49.030;8.714;2023-05-03T02:40:19;100158.41;;;14.62;54.05
7532;BME280;3807;49.030;8.714;2023-05-03T02:42:45;100161.28;;;14.52;54.04
7532;BME280;3807;49.030;8.714;2023-05-03T02:45:11;100158.91;;;14.46;54.27
7532;BME280;3807;49.030;8.714;2023-05-03T02:47:36;100164.00;;;14.48;54.19
7532;BME280;3807;49.030;8.714;2023-05-03T02:50:01;100162.47;;;14.42;54.16
7532;BME280;3807;49.030;8.714;2023-05-03T02:52:27;100166.56;;;14.48;54.26
7532;BME280;3807;49.030;8.714;2023-05-03T02:54:52;100159.88;;;14.44;54.19
7532;BME280;3807;49.030;8.714;2023-05-03T02:57:18;100161.75;;;14.39;54.03
7532;BME280;3807;49.030;8.714;2023-05-03T02:59:44;100160.19;;;14.35;54.18
7532;BME280;3807;49.030;8.714;2023-05-03T03:02:09;100161.09;;;14.34;54.00
7532;BME280;3807;49.030;8.714;2023-05-03T03:04:34;100161.50;;;14.21;54.40
7532;BME280;3807;49.030;8.714;2023-05-03T03:07:00;100165.63;;;14.25;54.25
7532;BME280;3807;49.030;8.714;2023-05-03T03:09:25;100159.94;;;14.17;54.35
7532;BME280;3807;49.030;8.714;2023-05-03T03:11:51;100160.09;;;14.13;54.53
7532;BME280;3807;49.030;8.714;2023-05-03T03:14:16;100156.75;;;14.11;54.67
7532;BME280;3807;49.030;8.714;2023-05-03T03:16:44;100152.63;;;14.06;54.58
7532;BME280;3807;49.030;8.714;2023-05-03T03:19:09;100156.84;;;14.07;54.65
7532;BME280;3807;49.030;8.714;2023-05-03T03:21:35;100166.28;;;14.07;54.43
7532;BME280;3807;49.030;8.714;2023-05-03T03:24:01;100168.72;;;14.10;54.34
7532;BME280;3807;49.030;8.714;2023-05-03T03:26:27;100161.56;;;13.95;54.76
7532;BME280;3807;49.030;8.714;2023-05-03T03:28:53;100165.75;;;13.97;54.69
7532;BME280;3807;49.030;8.714;2023-05-03T03:31:18;100169.09;;;13.99;54.52
7532;BME280;3807;49.030;8.714;2023-05-03T03:33:43;100166.69;;;13.95;54.63
7532;BME280;3807;49.030;8.714;2023-05-03T03:36:09;100179.50;;;13.95;54.50
7532;BME280;3807;49.030;8.714;2023-05-03T03:38:34;100181.47;;;13.87;54.80
7532;BME280;3807;49.030;8.714;2023-05-03T03:41:00;100179.00;;;13.83;54.72
7532;BME280;3807;49.030;8.714;2023-05-03T03:43:25;100182.38;;;13.84;54.66
7532;BME280;3807;49.030;8.714;2023-05-03T03:45:51;100174.69;;;13.86;54.59
7532;BME280;3807;49.030;8.714;2023-05-03T03:48:16;100182.16;;;13.92;54.27
7532;BME280;3807;49.030;8.714;2023-05-03T03:50:41;100185.00;;;13.82;54.37
7532;BME280;3807;49.030;8.714;2023-05-03T03:53:07;100188.00;;;13.70;54.85
7532;BME280;3807;49.030;8.714;2023-05-03T03:55:35;100186.19;;;13.72;54.67
7532;BME280;3807;49.030;8.714;2023-05-03T03:58:00;100179.50;;;13.68;54.63
7532;BME280;3807;49.030;8.714;2023-05-03T04:00:26;100187.34;;;13.64;54.73
7532;BME280;3807;49.030;8.714;2023-05-03T04:02:51;100185.13;;;13.53;54.87
7532;BME280;3807;49.030;8.714;2023-05-03T04:05:17;100183.44;;;13.52;55.21
7532;BME280;3807;49.030;8.714;2023-05-03T04:07:42;100178.88;;;13.62;54.62
7532;BME280;3807;49.030;8.714;2023-05-03T04:10:08;100170.16;;;13.67;54.44
7532;BME280;3807;49.030;8.714;2023-05-03T04:12:33;100185.31;;;13.47;54.95
7532;BME280;3807;49.030;8.714;2023-05-03T04:14:58;100180.38;;;13.41;55.33
7532;BME280;3807;49.030;8.714;2023-05-03T04:17:24;100180.44;;;13.39;55.15
7532;BME280;3807;49.030;8.714;2023-05-03T04:19:50;100184.81;;;13.36;55.39
7532;BME280;3807;49.030;8.714;2023-05-03T04:22:16;100184.09;;;13.32;55.18
7532;BME280;3807;49.030;8.714;2023-05-03T04:24:41;100181.56;;;13.30;55.28
7532;BME280;3807;49.030;8.714;2023-05-03T04:27:08;100187.78;;;13.22;55.34
7532;BME280;3807;49.030;8.714;2023-05-03T04:29:33;100175.16;;;13.16;55.70
7532;BME280;3807;49.030;8.714;2023-05-03T04:31:58;100183.59;;;13.18;55.29
7532;BME280;3807;49.030;8.714;2023-05-03T04:34:25;100184.41;;;13.20;55.42
7532;BME280;3807;49.030;8.714;2023-05-03T04:36:50;100181.06;;;13.18;55.24
7532;BME280;3807;49.030;8.714;2023-05-03T04:39:16;100182.09;;;13.12;55.42
7532;BME280;3807;49.030;8.714;2023-05-03T04:41:41;100185.44;;;13.14;55.27
7532;BME280;3807;49.030;8.714;2023-05-03T04:44:07;100196.81;;;13.04;55.73
7532;BME280;3807;49.030;8.714;2023-05-03T04:46:32;100190.75;;;13.08;55.34
7532;BME280;3807;49.030;8.714;2023-05-03T04:48:58;100194.38;;;13.01;55.60
7532;BME280;3807;49.030;8.714;2023-05-03T04:51:23;100192.66;;;13.00;55.83
7532;BME280;3807;49.030;8.714;2023-05-03T04:53:49;100188.75;;;12.88;55.83
7532;BME280;3807;49.030;8.714;2023-05-03T04:56:14;100187.94;;;12.87;56.07
7532;BME280;3807;49.030;8.714;2023-05-03T04:58:40;100183.69;;;12.86;56.08
7532;BME280;3807;49.030;8.714;2023-05-03T05:01:05;100187.41;;;12.76;56.50
7532;BME280;3807;49.030;8.714;2023-05-03T05:03:31;100192.31;;;12.82;56.07
7532;BME280;3807;49.030;8.714;2023-05-03T05:05:57;100191.34;;;12.86;56.08
7532;BME280;3807;49.030;8.714;2023-05-03T05:08:22;100190.19;;;12.97;56.14
7532;BME280;3807;49.030;8.714;2023-05-03T05:10:47;100197.59;;;13.06;55.92
7532;BME280;3807;49.030;8.714;2023-05-03T05:13:13;100196.81;;;13.04;55.78
7532;BME280;3807;49.030;8.714;2023-05-03T05:15:38;100198.50;;;13.05;55.58
7532;BME280;3807;49.030;8.714;2023-05-03T05:18:04;100201.16;;;13.02;55.61
7532;BME280;3807;49.030;8.714;2023-05-03T05:20:29;100200.44;;;12.97;55.83
7532;BME280;3807;49.030;8.714;2023-05-03T05:22:55;100202.97;;;12.98;56.04
7532;BME280;3807;49.030;8.714;2023-05-03T05:25:20;100199.78;;;12.90;56.25
7532;BME280;3807;49.030;8.714;2023-05-03T05:27:46;100201.53;;;12.88;56.21
7532;BME280;3807;49.030;8.714;2023-05-03T05:30:11;100207.66;;;12.82;56.56
7532;BME280;3807;49.030;8.714;2023-05-03T05:32:37;100208.38;;;12.87;56.60
7532;BME280;3807;49.030;8.714;2023-05-03T05:35:02;100209.34;;;12.83;56.66
7532;BME280;3807;49.030;8.714;2023-05-03T05:37:27;100210.47;;;13.03;56.06
7532;BME280;3807;49.030;8.714;2023-05-03T05:39:53;100214.25;;;12.91;56.42
7532;BME280;3807;49.030;8.714;2023-05-03T05:42:19;100209.00;;;12.96;56.33
7532;BME280;3807;49.030;8.714;2023-05-03T05:44:45;100211.28;;;13.05;56.21
7532;BME280;3807;49.030;8.714;2023-05-03T05:47:10;100215.25;;;13.15;55.84
7532;BME280;3807;49.030;8.714;2023-05-03T05:49:36;100208.00;;;13.00;56.02
7532;BME280;3807;49.030;8.714;2023-05-03T05:52:01;100215.56;;;13.04;56.01
7532;BME280;3807;49.030;8.714;2023-05-03T05:54:27;100203.94;;;12.94;56.49
7532;BME280;3807;49.030;8.714;2023-05-03T05:56:52;100210.84;;;12.91;56.41
7532;BME280;3807;49.030;8.714;2023-05-03T05:59:18;100210.66;;;12.97;56.40
7532;BME280;3807;49.030;8.714;2023-05-03T06:01:44;100210.41;;;12.76;56.81
7532;BME280;3807;49.030;8.714;2023-05-03T06:04:14;100203.66;;;12.74;57.50
7532;BME280;3807;49.030;8.714;2023-05-03T06:06:40;100207.13;;;12.71;57.39
7532;BME280;3807;49.030;8.714;2023-05-03T06:09:05;100200.28;;;12.72;57.59
7532;BME280;3807;49.030;8.714;2023-05-03T06:11:32;100200.13;;;12.78;56.83
7532;BME280;3807;49.030;8.714;2023-05-03T06:13:58;100200.06;;;12.81;57.36
7532;BME280;3807;49.030;8.714;2023-05-03T06:16:24;100201.94;;;12.74;57.08
7532;BME280;3807;49.030;8.714;2023-05-03T06:18:49;100207.00;;;12.76;57.55
7532;BME280;3807;49.030;8.714;2023-05-03T06:21:15;100208.50;;;12.83;57.24
7532;BME280;3807;49.030;8.714;2023-05-03T06:23:41;100199.69;;;12.93;57.25
7532;BME280;3807;49.030;8.714;2023-05-03T06:26:06;100190.75;;;12.78;58.06
7532;BME280;3807;49.030;8.714;2023-05-03T06:28:32;100203.44;;;12.81;57.42
7532;BME280;3807;49.030;8.714;2023-05-03T06:30:57;100207.13;;;12.71;58.03
7532;BME280;3807;49.030;8.714;2023-05-03T06:33:22;100197.25;;;12.88;57.30
7532;BME280;3807;49.030;8.714;2023-05-03T06:35:48;100193.28;;;12.80;57.77
7532;BME280;3807;49.030;8.714;2023-05-03T06:38:13;100203.37;;;12.83;57.47
7532;BME280;3807;49.030;8.714;2023-05-03T06:40:39;100197.13;;;12.63;58.18
7532;BME280;3807;49.030;8.714;2023-05-03T06:43:06;100190.91;;;12.72;58.27
7532;BME280;3807;49.030;8.714;2023-05-03T06:45:31;100191.66;;;12.76;58.12
7532;BME280;3807;49.030;8.714;2023-05-03T06:47:57;100189.66;;;12.87;57.57
7532;BME280;3807;49.030;8.714;2023-05-03T06:50:22;100201.47;;;12.91;57.87
7532;BME280;3807;49.030;8.714;2023-05-03T06:52:48;100194.28;;;12.74;58.09
7532;BME280;3807;49.030;8.714;2023-05-03T06:55:15;100190.50;;;12.87;58.13
7532;BME280;3807;49.030;8.714;2023-05-03T06:57:40;100188.50;;;12.97;57.63
7532;BME280;3807;49.030;8.714;2023-05-03T07:00:07;100192.06;;;12.92;57.75
7532;BME280;3807;49.030;8.714;2023-05-03T07:02:33;100185.31;;;12.89;58.04
7532;BME280;3807;49.030;8.714;2023-05-03T07:04:58;100184.31;;;12.95;58.02
7532;BME280;3807;49.030;8.714;2023-05-03T07:07:24;100182.00;;;12.85;58.17
7532;BME280;3807;49.030;8.714;2023-05-03T07:09:49;100168.88;;;12.98;57.19
7532;BME280;3807;49.030;8.714;2023-05-03T07:12:14;100164.59;;;12.98;57.44
7532;BME280;3807;49.030;8.714;2023-05-03T07:14:40;100173.94;;;12.99;57.94
7532;BME280;3807;49.030;8.714;2023-05-03T07:17:06;100168.25;;;12.90;58.56
7532;BME280;3807;49.030;8.714;2023-05-03T07:19:32;100164.00;;;12.90;58.41
7532;BME280;3807;49.030;8.714;2023-05-03T07:21:57;100168.16;;;12.93;58.59
7532;BME280;3807;49.030;8.714;2023-05-03T07:24:23;100166.50;;;12.92;58.77
7532;BME280;3807;49.030;8.714;2023-05-03T07:26:53;100169.75;;;12.97;58.82
7532;BME280;3807;49.030;8.714;2023-05-03T07:29:19;100172.63;;;12.86;58.99
7532;BME280;3807;49.030;8.714;2023-05-03T07:31:44;100163.34;;;12.83;59.24
7532;BME280;3807;49.030;8.714;2023-05-03T07:34:10;100169.22;;;12.85;60.20
7532;BME280;3807;49.030;8.714;2023-05-03T07:36:36;100163.78;;;12.98;58.96
7532;BME280;3807;49.030;8.714;2023-05-03T07:39:02;100156.38;;;13.17;58.37
7532;BME280;3807;49.030;8.714;2023-05-03T07:41:28;100160.72;;;13.15;58.54
7532;BME280;3807;49.030;8.714;2023-05-03T07:43:54;100162.69;;;13.05;58.64
7532;BME280;3807;49.030;8.714;2023-05-03T07:46:20;100164.88;;;13.17;58.65
7532;BME280;3807;49.030;8.714;2023-05-03T07:48:45;100157.19;;;13.17;58.67
7532;BME280;3807;49.030;8.714;2023-05-03T07:51:11;100155.72;;;13.10;58.25
7532;BME280;3807;49.030;8.714;2023-05-03T07:53:36;100159.09;;;13.10;58.21
7532;BME280;3807;49.030;8.714;2023-05-03T07:56:04;100153.03;;;13.15;58.65
7532;BME280;3807;49.030;8.714;2023-05-03T07:58:30;100148.84;;;13.12;58.82
7532;BME280;3807;49.030;8.714;2023-05-03T08:00:55;100144.75;;;13.06;58.88
7532;BME280;3807;49.030;8.714;2023-05-03T08:03:21;100146.44;;;13.07;60.90
7532;BME280;3807;49.030;8.714;2023-05-03T08:05:46;100139.53;;;13.09;59.87
7532;BME280;3807;49.030;8.714;2023-05-03T08:08:12;100143.97;;;13.32;58.54
7532;BME280;3807;49.030;8.714;2023-05-03T08:10:38;100152.91;;;13.18;60.44
7532;BME280;3807;49.030;8.714;2023-05-03T08:13:04;100157.94;;;13.21;58.82
7532;BME280;3807;49.030;8.714;2023-05-03T08:15:32;100160.56;;;13.19;58.84
7532;BME280;3807;49.030;8.714;2023-05-03T08:17:58;100153.13;;;13.40;58.44
7532;BME280;3807;49.030;8.714;2023-05-03T08:20:24;100155.72;;;13.38;59.98
7532;BME280;3807;49.030;8.714;2023-05-03T08:22:51;100159.63;;;13.50;58.61
7532;BME280;3807;49.030;8.714;2023-05-03T08:25:18;100165.28;;;13.33;60.68
7532;BME280;3807;49.030;8.714;2023-05-03T08:27:44;100161.47;;;13.46;60.65
7532;BME280;3807;49.030;8.714;2023-05-03T08:30:10;100164.06;;;13.45;61.05
7532;BME280;3807;49.030;8.714;2023-05-03T08:32:35;100163.81;;;13.52;61.41
7532;BME280;3807;49.030;8.714;2023-05-03T08:35:00;100172.19;;;13.57;61.41
7532;BME280;3807;49.030;8.714;2023-05-03T08:37:36;100164.25;;;13.65;61.76
7532;BME280;3807;49.030;8.714;2023-05-03T08:40:02;100181.72;;;13.79;61.11
7532;BME280;3807;49.030;8.714;2023-05-03T08:42:30;100173.66;;;13.91;61.37
7532;BME280;3807;49.030;8.714;2023-05-03T08:44:57;100179.16;;;13.79;61.94
7532;BME280;3807;49.030;8.714;2023-05-03T08:47:22;100171.69;;;13.98;61.31
7532;BME280;3807;49.030;8.714;2023-05-03T08:49:49;100176.22;;;13.91;61.75
7532;BME280;3807;49.030;8.714;2023-05-03T08:52:16;100178.41;;;14.02;61.66
7532;BME280;3807;49.030;8.714;2023-05-03T08:54:44;100175.25;;;14.19;61.00
7532;BME280;3807;49.030;8.714;2023-05-03T08:57:10;100166.34;;;14.29;60.97
7532;BME280;3807;49.030;8.714;2023-05-03T08:59:51;100170.03;;;14.22;61.18
7532;BME280;3807;49.030;8.714;2023-05-03T09:02:25;100158.56;;;14.32;61.48
7532;BME280;3807;49.030;8.714;2023-05-03T09:04:51;100159.97;;;14.41;60.80
7532;BME280;3807;49.030;8.714;2023-05-03T09:07:17;100159.72;;;14.47;60.58
7532;BME280;3807;49.030;8.714;2023-05-03T09:09:44;100158.78;;;14.49;61.27
7532;BME280;3807;49.030;8.714;2023-05-03T09:12:09;100164.75;;;14.51;60.88
7532;BME280;3807;49.030;8.714;2023-05-03T09:14:44;100169.22;;;14.45;61.33
7532;BME280;3807;49.030;8.714;2023-05-03T09:17:15;100168.31;;;14.46;60.85
7532;BME280;3807;49.030;8.714;2023-05-03T09:19:52;100169.94;;;14.48;61.36
7532;BME280;3807;49.030;8.714;2023-05-03T09:22:18;100166.09;;;14.62;61.36
7532;BME280;3807;49.030;8.714;2023-05-03T09:24:54;100168.16;;;14.75;60.72
7532;BME280;3807;49.030;8.714;2023-05-03T09:27:20;100169.69;;;14.80;61.16
7532;BME280;3807;49.030;8.714;2023-05-03T09:29:46;100163.63;;;14.82;60.32
7532;BME280;3807;49.030;8.714;2023-05-03T09:32:12;100164.47;;;14.83;60.77
7532;BME280;3807;49.030;8.714;2023-05-03T09:34:38;100163.69;;;15.02;60.49
7532;BME280;3807;49.030;8.714;2023-05-03T09:37:03;100163.66;;;14.81;60.78
7532;BME280;3807;49.030;8.714;2023-05-03T09:39:29;100159.34;;;15.05;60.57
7532;BME280;3807;49.030;8.714;2023-05-03T09:41:55;100164.28;;;15.09;59.84
7532;BME280;3807;49.030;8.714;2023-05-03T09:44:39;100154.28;;;15.25;60.51
7532;BME280;3807;49.030;8.714;2023-05-03T09:47:06;100159.75;;;15.16;60.33
7532;BME280;3807;49.030;8.714;2023-05-03T09:49:31;100159.66;;;15.19;61.00
7532;BME280;3807;49.030;8.714;2023-05-03T09:51:58;100156.66;;;15.30;60.71
7532;BME280;3807;49.030;8.714;2023-05-03T09:54:24;100156.81;;;15.47;60.31
7532;BME280;3807;49.030;8.714;2023-05-03T09:56:49;100155.03;;;15.71;59.45
7532;BME280;3807;49.030;8.714;2023-05-03T09:59:16;100153.25;;;15.73;59.34
7532;BME280;3807;49.030;8.714;2023-05-03T10:01:42;100160.75;;;15.98;58.97
7532;BME280;3807;49.030;8.714;2023-05-03T10:04:08;100160.16;;;15.91;58.18
7532;BME280;3807;49.030;8.714;2023-05-03T10:06:38;100153.03;;;15.98;59.30
7532;BME280;3807;49.030;8.714;2023-05-03T10:09:11;100157.75;;;16.28;58.00
7532;BME280;3807;49.030;8.714;2023-05-03T10:11:42;100162.06;;;16.27;57.34
7532;BME280;3807;49.030;8.714;2023-05-03T10:14:10;100154.03;;;16.54;57.09
7532;BME280;3807;49.030;8.714;2023-05-03T10:16:38;100157.53;;;16.72;55.88
7532;BME280;3807;49.030;8.714;2023-05-03T10:19:10;100151.56;;;16.71;56.06
7532;BME280;3807;49.030;8.714;2023-05-03T10:26:39;100132.75;;;17.07;55.43
7532;BME280;3807;49.030;8.714;2023-05-03T10:29:04;100138.31;;;17.17;55.40
7532;BME280;3807;49.030;8.714;2023-05-03T10:31:45;100132.78;;;17.24;55.21
7532;BME280;3807;49.030;8.714;2023-05-03T10:34:37;100127.22;;;17.51;55.06
7532;BME280;3807;49.030;8.714;2023-05-03T10:37:09;100128.72;;;17.72;53.94
7532;BME280;3807;49.030;8.714;2023-05-03T10:39:35;100123.59;;;17.72;54.33
7532;BME280;3807;49.030;8.714;2023-05-03T10:42:03;100128.06;;;17.69;54.99
7532;BME280;3807;49.030;8.714;2023-05-03T10:44:37;100123.75;;;17.87;54.04
7532;BME280;3807;49.030;8.714;2023-05-03T10:47:29;100115.41;;;17.81;54.91
7532;BME280;3807;49.030;8.714;2023-05-03T10:57:38;100090.44;;;18.48;53.55
7532;BME280;3807;49.030;8.714;2023-05-03T11:00:11;100088.34;;;18.39;52.96
7532;BME280;3807;49.030;8.714;2023-05-03T11:02:41;100092.84;;;18.67;52.60
7532;BME280;3807;49.030;8.714;2023-05-03T11:05:11;100088.97;;;18.76;52.12
7532;BME280;3807;49.030;8.714;2023-05-03T11:07:37;100088.28;;;19.04;51.60
7532;BME280;3807;49.030;8.714;2023-05-03T11:10:17;100087.66;;;19.15;51.50
7532;BME280;3807;49.030;8.714;2023-05-03T11:12:42;100088.09;;;19.37;51.51
7532;BME280;3807;49.030;8.714;2023-05-03T11:15:08;100080.59;;;19.18;52.89
7532;BME280;3807;49.030;8.714;2023-05-03T11:17:36;100083.75;;;19.38;51.14
7532;BME280;3807;49.030;8.714;2023-05-03T11:20:04;100078.38;;;19.57;50.74
7532;BME280;3807;49.030;8.714;2023-05-03T11:22:33;100078.97;;;19.76;51.22
7532;BME280;3807;49.030;8.714;2023-05-03T11:24:58;100084.06;;;19.92;50.00
7532;BME280;3807;49.030;8.714;2023-05-03T11:27:23;100087.53;;;19.91;50.80
7532;BME280;3807;49.030;8.714;2023-05-03T11:29:49;100080.94;;;20.15;49.44
7532;BME280;3807;49.030;8.714;2023-05-03T11:32:16;100077.87;;;20.23;49.64
7532;BME280;3807;49.030;8.714;2023-05-03T11:34:42;100076.47;;;20.17;50.57
7532;BME280;3807;49.030;8.714;2023-05-03T11:37:08;100070.38;;;20.33;48.84
7532;BME280;3807;49.030;8.714;2023-05-03T11:39:35;100067.94;;;20.44;49.75
7532;BME280;3807;49.030;8.714;2023-05-03T11:42:02;100058.09;;;20.63;48.39
7532;BME280;3807;49.030;8.714;2023-05-03T11:44:28;100061.97;;;20.70;47.60
7532;BME280;3807;49.030;8.714;2023-05-03T11:46:53;100066.88;;;20.75;48.06
7532;BME280;3807;49.030;8.714;2023-05-03T11:49:19;100068.38;;;20.92;47.96
7532;BME280;3807;49.030;8.714;2023-05-03T11:51:45;100063.09;;;20.93;47.68
7532;BME280;3807;49.030;8.714;2023-05-03T11:54:10;100057.84;;;21.08;45.86
7532;BME280;3807;49.030;8.714;2023-05-03T11:56:36;100059.41;;;21.23;46.26
7532;BME280;3807;49.030;8.714;2023-05-03T11:59:02;100060.22;;;21.51;46.95
7532;BME280;3807;49.030;8.714;2023-05-03T12:01:28;100059.41;;;21.37;47.08
7532;BME280;3807;49.030;8.714;2023-05-03T12:03:58;100062.59;;;21.54;46.88
7532;BME280;3807;49.030;8.714;2023-05-03T12:06:25;100063.25;;;21.70;46.12
7532;BME280;3807;49.030;8.714;2023-05-03T12:08:55;100056.91;;;21.87;44.04
7532;BME280;3807;49.030;8.714;2023-05-03T12:11:21;100048.38;;;21.98;45.93
7532;BME280;3807;49.030;8.714;2023-05-03T12:13:58;100052.00;;;21.95;45.21
7532;BME280;3807;49.030;8.714;2023-05-03T12:16:24;100048.78;;;22.04;46.03
7532;BME280;3807;49.030;8.714;2023-05-03T12:18:56;100048.56;;;22.20;45.59
7532;BME280;3807;49.030;8.714;2023-05-03T12:21:42;100036.50;;;22.32;45.25
7532;BME280;3807;49.030;8.714;2023-05-03T12:24:08;100034.69;;;22.21;43.66
7532;BME280;3807;49.030;8.714;2023-05-03T12:26:33;100041.56;;;22.33;46.12
7532;BME280;3807;49.030;8.714;2023-05-03T12:28:59;100037.81;;;22.38;46.29
7532;BME280;3807;49.030;8.714;2023-05-03T12:31:25;100033.28;;;22.52;45.71
7532;BME280;3807;49.030;8.714;2023-05-03T12:33:51;100029.66;;;22.55;45.35
7532;BME280;3807;49.030;8.714;2023-05-03T12:36:17;100026.03;;;22.57;44.09
7532;BME280;3807;49.030;8.714;2023-05-03T12:38:43;100018.91;;;22.83;44.66
7532;BME280;3807;49.030;8.714;2023-05-03T12:41:08;100030.37;;;22.81;44.13
7532;BME280;3807;49.030;8.714;2023-05-03T12:43:35;100023.50;;;23.04;43.81
7532;BME280;3807;49.030;8.714;2023-05-03T12:46:00;100029.22;;;23.20;44.07
7532;BME280;3807;49.030;8.714;2023-05-03T12:48:27;100024.09;;;23.08;42.56
7532;BME280;3807;49.030;8.714;2023-05-03T12:50:52;100030.91;;;23.33;43.67
7532;BME280;3807;49.030;8.714;2023-05-03T12:53:19;100019.13;;;23.40;44.44
7532;BME280;3807;49.030;8.714;2023-05-03T12:55:45;100010.59;;;23.60;41.99
7532;BME280;3807;49.030;8.714;2023-05-03T12:58:11;100012.66;;;23.68;44.01
7532;BME280;3807;49.030;8.714;2023-05-03T13:00:36;100008.25;;;23.57;45.12
7532;BME280;3807;49.030;8.714;2023-05-03T13:03:01;100008.50;;;23.54;44.54
7532;BME280;3807;49.030;8.714;2023-05-03T13:05:28;99999.38;;;24.05;41.95
7532;BME280;3807;49.030;8.714;2023-05-03T13:07:53;99989.44;;;24.10;42.86
7532;BME280;3807;49.030;8.714;2023-05-03T13:10:19;99989.31;;;24.11;43.21
7532;BME280;3807;49.030;8.714;2023-05-03T13:12:44;99990.69;;;24.27;41.57
7532;BME280;3807;49.030;8.714;2023-05-03T13:15:10;99991.78;;;24.13;42.89
7532;BME280;3807;49.030;8.714;2023-05-03T13:17:36;99981.81;;;24.29;42.02
7532;BME280;3807;49.030;8.714;2023-05-03T13:20:01;99985.25;;;24.41;42.36
7532;BME280;3807;49.030;8.714;2023-05-03T13:22:27;99979.22;;;24.29;42.63
7532;BME280;3807;49.030;8.714;2023-05-03T13:24:52;99979.09;;;24.31;42.93
7532;BME280;3807;49.030;8.714;2023-05-03T13:27:18;99978.59;;;24.37;42.75
7532;BME280;3807;49.030;8.714;2023-05-03T13:29:43;99973.50;;;24.46;41.32